Terminal Aerodrome Forecast
Issued by NWS

Home | Current Version | Previous Version | Text Only | Print | Product List | Glossary Off
Versions: 1 2 3 4 5 6 7 8 9 10 11 12 13 14 15 16

956
FTUS43 KOAX 250520
TAFCDR
TAF
KCDR 250520Z 2506/2606 18022G35KT P6SM SKC
     FM250900 30006KT P6SM SCT090
     FM251600 32010KT P6SM BKN090
     FM260100 30006KT P6SM VCSH BKN050=

USA.gov is the U.S. government's official web portal to all federal, state and local government web resources and services.